Home PIREPS Pireps

Flight BEL3703

  • Submitted By: Vincent Fourni
  • Departure Airport: Bruxelles National (EBBR)
  • Arrival Airport: barcelona airport (LEBL)
  • Aircraft: A320-214 (OO-SND)
  • Flight Time: 02.11
  • Date Submitted: 18/03/2015
  • Status: Accepted
Flight Details
Gross Revenue:
(142 load / € 0.00 per unit
€ 0.00
Fuel Cost:
(5396 fuel used @ 5.1 / unit)
€ 27,519.60

Additional Log Information:

View Log

Aircraft Used in flight is SN Brussels Airlines
09:26 Brakes are On
09:28 Brakes are Released
09:30 Brakes are On
09:31 Brakes are Released
09:35 You Took off @ 166 Knots and Flaps at Position 3
Departure Weather
EBBR 180820Z 33006KT 0200 R25L/0325V0500N R25R/0375N R01/0300V0550N FG BKN001 BKN002 06/05 Q1027 BECMG 2000 BR BKN003rn
09:35 Landing Gear Up @ 173 Knots and 400 Feet
09:37 You exceeded maximum bank angle
09:39 Above FL100 you need to switch of the landing lights
11:13 Overspeed
11:14 Recovered from Overspeed
11:31 Landing Gear Down @ 156 Knots and 2740 Feet
11:36 You Landed @ 121 Knots and with -500 Vertical Speed
Arrival Weather
LEBL 181000Z 07017KT 9999 SCT016 BKN024 BKN032 14/10 Q1022 NOSIGrn
11:36 Brakes are On
11:37 Brussels Bel-Track1.0.0.8

Route Map

Corporate About Us Our Team Vacancies Information Fleet Route Network Rules and Regulations Operations Flight Schedules Event Center Tours Partners IVAO Vatsim Acars dev FSCB

fb Users Online Belgium Bennie Peeters, South Africa Marc Toussaint,
2 Pilot(s) and 158 Guest(s) Online
CMS by phpVMS - Design by Crazycreatives.com - Copyright © 2020 - Brussels Airlines Virtual